sensor_id;sensor_type;location;lat;lon;timestamp;P1;durP1;ratioP1;P2;durP2;ratioP2
2684;SDS011;1352;48.446;9.156;2022-08-01T00:01:50;3.27;;;2.70;;
2684;SDS011;1352;48.446;9.156;2022-08-01T00:04:17;4.50;;;3.33;;
2684;SDS011;1352;48.446;9.156;2022-08-01T00:06:45;3.40;;;3.10;;
2684;SDS011;1352;48.446;9.156;2022-08-01T00:09:12;3.40;;;3.10;;
2684;SDS011;1352;48.446;9.156;2022-08-01T00:11:39;2.60;;;2.40;;
2684;SDS011;1352;48.446;9.156;2022-08-01T00:14:07;3.00;;;2.80;;
2684;SDS011;1352;48.446;9.156;2022-08-01T00:16:34;3.63;;;3.00;;
2684;SDS011;1352;48.446;9.156;2022-08-01T00:19:03;3.87;;;3.03;;
2684;SDS011;1352;48.446;9.156;2022-08-01T00:21:30;4.03;;;2.90;;
2684;SDS011;1352;48.446;9.156;2022-08-01T00:23:57;4.10;;;3.43;;
2684;SDS011;1352;48.446;9.156;2022-08-01T00:26:24;3.90;;;3.40;;
2684;SDS011;1352;48.446;9.156;2022-08-01T00:28:51;3.20;;;3.00;;
2684;SDS011;1352;48.446;9.156;2022-08-01T00:31:18;3.00;;;2.80;;
2684;SDS011;1352;48.446;9.156;2022-08-01T00:33:46;5.30;;;3.40;;
2684;SDS011;1352;48.446;9.156;2022-08-01T00:36:14;3.70;;;3.40;;
2684;SDS011;1352;48.446;9.156;2022-08-01T00:38:41;3.67;;;3.37;;
2684;SDS011;1352;48.446;9.156;2022-08-01T00:41:08;3.40;;;3.20;;
2684;SDS011;1352;48.446;9.156;2022-08-01T00:43:35;3.83;;;3.50;;
2684;SDS011;1352;48.446;9.156;2022-08-01T00:46:02;5.30;;;4.03;;
2684;SDS011;1352;48.446;9.156;2022-08-01T00:48:30;6.13;;;3.90;;
2684;SDS011;1352;48.446;9.156;2022-08-01T00:50:57;4.30;;;3.33;;
2684;SDS011;1352;48.446;9.156;2022-08-01T00:53:25;5.33;;;4.73;;
2684;SDS011;1352;48.446;9.156;2022-08-01T00:55:53;3.60;;;3.30;;
2684;SDS011;1352;48.446;9.156;2022-08-01T00:58:20;3.50;;;3.30;;
2684;SDS011;1352;48.446;9.156;2022-08-01T01:00:47;4.80;;;3.70;;
2684;SDS011;1352;48.446;9.156;2022-08-01T01:03:14;3.20;;;3.00;;
2684;SDS011;1352;48.446;9.156;2022-08-01T01:05:45;4.10;;;3.70;;
2684;SDS011;1352;48.446;9.156;2022-08-01T01:08:22;5.03;;;3.80;;
2684;SDS011;1352;48.446;9.156;2022-08-01T01:10:57;5.37;;;3.90;;
2684;SDS011;1352;48.446;9.156;2022-08-01T01:13:31;4.57;;;4.17;;
2684;SDS011;1352;48.446;9.156;2022-08-01T01:16:04;3.70;;;3.40;;
2684;SDS011;1352;48.446;9.156;2022-08-01T01:18:37;4.30;;;3.97;;
2684;SDS011;1352;48.446;9.156;2022-08-01T01:21:12;3.77;;;3.47;;
2684;SDS011;1352;48.446;9.156;2022-08-01T01:23:53;3.47;;;3.27;;
2684;SDS011;1352;48.446;9.156;2022-08-01T01:26:35;4.17;;;3.87;;
2684;SDS011;1352;48.446;9.156;2022-08-01T01:29:11;4.03;;;3.73;;
2684;SDS011;1352;48.446;9.156;2022-08-01T01:31:43;4.60;;;4.13;;
2684;SDS011;1352;48.446;9.156;2022-08-01T01:34:15;4.03;;;3.73;;
2684;SDS011;1352;48.446;9.156;2022-08-01T01:36:45;3.60;;;3.40;;
2684;SDS011;1352;48.446;9.156;2022-08-01T01:39:14;4.70;;;3.87;;
2684;SDS011;1352;48.446;9.156;2022-08-01T01:41:43;4.10;;;3.70;;
2684;SDS011;1352;48.446;9.156;2022-08-01T01:44:14;3.60;;;3.30;;
2684;SDS011;1352;48.446;9.156;2022-08-01T01:46:42;4.23;;;3.83;;
2684;SDS011;1352;48.446;9.156;2022-08-01T01:49:10;3.83;;;3.53;;
2684;SDS011;1352;48.446;9.156;2022-08-01T01:51:38;4.03;;;3.73;;
2684;SDS011;1352;48.446;9.156;2022-08-01T01:54:08;4.30;;;3.90;;
2684;SDS011;1352;48.446;9.156;2022-08-01T01:56:36;3.90;;;3.60;;
2684;SDS011;1352;48.446;9.156;2022-08-01T01:59:15;4.43;;;4.03;;
2684;SDS011;1352;48.446;9.156;2022-08-01T02:01:45;4.37;;;4.07;;
2684;SDS011;1352;48.446;9.156;2022-08-01T02:04:14;5.07;;;3.83;;
2684;SDS011;1352;48.446;9.156;2022-08-01T02:06:43;4.10;;;3.80;;
2684;SDS011;1352;48.446;9.156;2022-08-01T02:09:14;6.37;;;3.90;;
2684;SDS011;1352;48.446;9.156;2022-08-01T02:11:44;4.70;;;4.10;;
2684;SDS011;1352;48.446;9.156;2022-08-01T02:14:13;5.03;;;4.13;;
2684;SDS011;1352;48.446;9.156;2022-08-01T02:16:44;4.20;;;3.90;;
2684;SDS011;1352;48.446;9.156;2022-08-01T02:19:13;4.30;;;3.90;;
2684;SDS011;1352;48.446;9.156;2022-08-01T02:21:44;4.87;;;4.40;;
2684;SDS011;1352;48.446;9.156;2022-08-01T02:24:16;3.90;;;3.53;;
2684;SDS011;1352;48.446;9.156;2022-08-01T02:26:49;4.67;;;4.33;;
2684;SDS011;1352;48.446;9.156;2022-08-01T02:29:21;4.93;;;4.40;;
2684;SDS011;1352;48.446;9.156;2022-08-01T02:31:52;4.60;;;4.30;;
2684;SDS011;1352;48.446;9.156;2022-08-01T02:34:21;4.90;;;4.50;;
2684;SDS011;1352;48.446;9.156;2022-08-01T02:36:51;4.63;;;4.33;;
2684;SDS011;1352;48.446;9.156;2022-08-01T02:39:20;4.67;;;4.03;;
2684;SDS011;1352;48.446;9.156;2022-08-01T02:41:50;4.27;;;3.93;;
2684;SDS011;1352;48.446;9.156;2022-08-01T02:44:24;4.80;;;4.20;;
2684;SDS011;1352;48.446;9.156;2022-08-01T02:46:58;5.40;;;4.90;;
2684;SDS011;1352;48.446;9.156;2022-08-01T02:49:29;4.50;;;4.10;;
2684;SDS011;1352;48.446;9.156;2022-08-01T02:51:59;4.80;;;4.50;;
2684;SDS011;1352;48.446;9.156;2022-08-01T02:54:30;4.53;;;4.23;;
2684;SDS011;1352;48.446;9.156;2022-08-01T02:57:00;4.57;;;4.23;;
2684;SDS011;1352;48.446;9.156;2022-08-01T02:59:29;4.70;;;4.30;;
2684;SDS011;1352;48.446;9.156;2022-08-01T03:02:00;4.70;;;4.30;;
2684;SDS011;1352;48.446;9.156;2022-08-01T03:04:30;4.80;;;4.40;;
2684;SDS011;1352;48.446;9.156;2022-08-01T03:07:00;4.30;;;4.00;;
2684;SDS011;1352;48.446;9.156;2022-08-01T03:09:30;4.17;;;3.87;;
2684;SDS011;1352;48.446;9.156;2022-08-01T03:12:01;4.57;;;4.17;;
2684;SDS011;1352;48.446;9.156;2022-08-01T03:14:31;4.73;;;4.37;;
2684;SDS011;1352;48.446;9.156;2022-08-01T03:17:03;4.90;;;4.50;;
2684;SDS011;1352;48.446;9.156;2022-08-01T03:19:31;5.67;;;4.57;;
2684;SDS011;1352;48.446;9.156;2022-08-01T03:22:00;5.10;;;4.70;;
2684;SDS011;1352;48.446;9.156;2022-08-01T03:24:31;5.23;;;4.83;;
2684;SDS011;1352;48.446;9.156;2022-08-01T03:27:01;5.63;;;5.20;;
2684;SDS011;1352;48.446;9.156;2022-08-01T03:29:30;4.30;;;3.93;;
2684;SDS011;1352;48.446;9.156;2022-08-01T03:31:59;5.70;;;5.20;;
2684;SDS011;1352;48.446;9.156;2022-08-01T03:34:28;5.27;;;4.77;;
2684;SDS011;1352;48.446;9.156;2022-08-01T03:36:56;4.70;;;4.30;;
2684;SDS011;1352;48.446;9.156;2022-08-01T03:39:30;6.57;;;5.17;;
2684;SDS011;1352;48.446;9.156;2022-08-01T03:42:03;6.27;;;5.10;;
2684;SDS011;1352;48.446;9.156;2022-08-01T03:44:36;5.47;;;5.07;;
2684;SDS011;1352;48.446;9.156;2022-08-01T03:47:07;5.50;;;4.93;;
2684;SDS011;1352;48.446;9.156;2022-08-01T03:49:37;5.23;;;4.83;;
2684;SDS011;1352;48.446;9.156;2022-08-01T03:52:08;5.27;;;4.77;;
2684;SDS011;1352;48.446;9.156;2022-08-01T03:54:36;5.50;;;5.10;;
2684;SDS011;1352;48.446;9.156;2022-08-01T03:57:06;5.50;;;5.00;;
2684;SDS011;1352;48.446;9.156;2022-08-01T03:59:35;5.33;;;4.87;;
2684;SDS011;1352;48.446;9.156;2022-08-01T04:02:04;5.73;;;5.23;;
2684;SDS011;1352;48.446;9.156;2022-08-01T04:04:32;5.23;;;4.50;;
2684;SDS011;1352;48.446;9.156;2022-08-01T04:07:01;4.73;;;4.43;;
2684;SDS011;1352;48.446;9.156;2022-08-01T04:09:32;6.77;;;4.37;;
2684;SDS011;1352;48.446;9.156;2022-08-01T04:11:59;5.20;;;4.80;;
2684;SDS011;1352;48.446;9.156;2022-08-01T04:14:27;5.77;;;5.27;;
2684;SDS011;1352;48.446;9.156;2022-08-01T04:16:54;5.67;;;5.17;;
2684;SDS011;1352;48.446;9.156;2022-08-01T04:19:21;6.13;;;5.60;;
2684;SDS011;1352;48.446;9.156;2022-08-01T04:21:48;6.40;;;5.80;;
2684;SDS011;1352;48.446;9.156;2022-08-01T04:24:18;4.97;;;4.53;;
2684;SDS011;1352;48.446;9.156;2022-08-01T04:26:46;5.47;;;4.90;;
2684;SDS011;1352;48.446;9.156;2022-08-01T04:29:17;5.83;;;5.33;;
2684;SDS011;1352;48.446;9.156;2022-08-01T04:31:46;5.93;;;5.40;;
2684;SDS011;1352;48.446;9.156;2022-08-01T04:34:15;6.27;;;5.77;;
2684;SDS011;1352;48.446;9.156;2022-08-01T04:36:47;6.60;;;6.10;;
2684;SDS011;1352;48.446;9.156;2022-08-01T04:39:18;5.70;;;5.13;;
2684;SDS011;1352;48.446;9.156;2022-08-01T04:41:46;6.30;;;5.67;;
2684;SDS011;1352;48.446;9.156;2022-08-01T04:44:15;5.80;;;5.20;;
2684;SDS011;1352;48.446;9.156;2022-08-01T04:46:43;5.83;;;5.33;;
2684;SDS011;1352;48.446;9.156;2022-08-01T04:49:11;6.87;;;5.67;;
2684;SDS011;1352;48.446;9.156;2022-08-01T04:54:27;5.60;;;4.90;;
2684;SDS011;1352;48.446;9.156;2022-08-01T04:56:58;6.43;;;5.93;;
2684;SDS011;1352;48.446;9.156;2022-08-01T04:59:26;6.00;;;5.50;;
2684;SDS011;1352;48.446;9.156;2022-08-01T05:02:06;6.33;;;5.73;;
2684;SDS011;1352;48.446;9.156;2022-08-01T05:04:34;5.93;;;5.53;;
2684;SDS011;1352;48.446;9.156;2022-08-01T05:07:02;6.30;;;5.70;;
2684;SDS011;1352;48.446;9.156;2022-08-01T05:09:31;6.20;;;5.70;;
2684;SDS011;1352;48.446;9.156;2022-08-01T05:11:59;5.63;;;5.13;;
2684;SDS011;1352;48.446;9.156;2022-08-01T05:14:27;8.83;;;6.03;;
2684;SDS011;1352;48.446;9.156;2022-08-01T05:16:57;6.10;;;5.60;;
2684;SDS011;1352;48.446;9.156;2022-08-01T05:19:24;5.67;;;5.17;;
2684;SDS011;1352;48.446;9.156;2022-08-01T05:21:51;6.00;;;5.50;;
2684;SDS011;1352;48.446;9.156;2022-08-01T05:24:18;6.57;;;5.97;;
2684;SDS011;1352;48.446;9.156;2022-08-01T05:26:47;6.40;;;5.80;;
2684;SDS011;1352;48.446;9.156;2022-08-01T05:29:14;5.87;;;5.47;;
2684;SDS011;1352;48.446;9.156;2022-08-01T05:31:42;6.30;;;5.70;;
2684;SDS011;1352;48.446;9.156;2022-08-01T05:34:09;6.53;;;5.93;;
2684;SDS011;1352;48.446;9.156;2022-08-01T05:36:36;6.10;;;5.60;;
2684;SDS011;1352;48.446;9.156;2022-08-01T05:39:03;6.00;;;5.40;;
2684;SDS011;1352;48.446;9.156;2022-08-01T05:41:30;6.23;;;5.43;;
2684;SDS011;1352;48.446;9.156;2022-08-01T05:43:59;6.70;;;6.10;;
2684;SDS011;1352;48.446;9.156;2022-08-01T05:46:26;6.30;;;5.80;;
2684;SDS011;1352;48.446;9.156;2022-08-01T05:48:55;6.80;;;6.23;;
2684;SDS011;1352;48.446;9.156;2022-08-01T05:51:22;6.83;;;5.80;;
2684;SDS011;1352;48.446;9.156;2022-08-01T05:53:49;9.37;;;5.60;;
2684;SDS011;1352;48.446;9.156;2022-08-01T05:56:16;8.63;;;5.50;;
2684;SDS011;1352;48.446;9.156;2022-08-01T05:58:44;6.03;;;5.53;;
2684;SDS011;1352;48.446;9.156;2022-08-01T06:01:12;6.43;;;5.93;;
2684;SDS011;1352;48.446;9.156;2022-08-01T06:03:40;6.63;;;6.07;;
2684;SDS011;1352;48.446;9.156;2022-08-01T06:06:07;6.80;;;5.90;;
2684;SDS011;1352;48.446;9.156;2022-08-01T06:08:34;6.50;;;6.00;;
2684;SDS011;1352;48.446;9.156;2022-08-01T06:11:01;6.73;;;6.10;;
2684;SDS011;1352;48.446;9.156;2022-08-01T06:13:28;5.83;;;5.33;;
2684;SDS011;1352;48.446;9.156;2022-08-01T06:15:55;6.43;;;5.93;;
2684;SDS011;1352;48.446;9.156;2022-08-01T06:18:24;5.57;;;4.90;;
2684;SDS011;1352;48.446;9.156;2022-08-01T06:20:51;5.70;;;4.53;;
2684;SDS011;1352;48.446;9.156;2022-08-01T06:23:19;4.77;;;4.40;;
2684;SDS011;1352;48.446;9.156;2022-08-01T06:25:47;4.70;;;4.40;;
2684;SDS011;1352;48.446;9.156;2022-08-01T06:28:14;5.50;;;5.10;;
2684;SDS011;1352;48.446;9.156;2022-08-01T06:30:41;4.90;;;4.50;;
2684;SDS011;1352;48.446;9.156;2022-08-01T06:33:08;4.63;;;3.63;;
2684;SDS011;1352;48.446;9.156;2022-08-01T06:35:37;4.63;;;4.23;;
2684;SDS011;1352;48.446;9.156;2022-08-01T06:38:04;5.97;;;4.53;;
2684;SDS011;1352;48.446;9.156;2022-08-01T06:40:31;4.50;;;4.17;;
2684;SDS011;1352;48.446;9.156;2022-08-01T06:42:58;5.20;;;4.50;;
2684;SDS011;1352;48.446;9.156;2022-08-01T06:45:25;3.80;;;3.50;;
2684;SDS011;1352;48.446;9.156;2022-08-01T06:47:52;6.07;;;4.17;;
2684;SDS011;1352;48.446;9.156;2022-08-01T06:50:20;4.43;;;4.00;;
2684;SDS011;1352;48.446;9.156;2022-08-01T06:52:48;4.47;;;4.17;;
2684;SDS011;1352;48.446;9.156;2022-08-01T06:55:15;4.40;;;4.10;;
2684;SDS011;1352;48.446;9.156;2022-08-01T06:57:46;4.00;;;3.70;;
2684;SDS011;1352;48.446;9.156;2022-08-01T07:00:14;3.70;;;3.40;;
2684;SDS011;1352;48.446;9.156;2022-08-01T07:02:44;4.40;;;4.10;;
2684;SDS011;1352;48.446;9.156;2022-08-01T07:05:11;6.60;;;4.20;;
2684;SDS011;1352;48.446;9.156;2022-08-01T07:07:39;6.30;;;4.07;;
2684;SDS011;1352;48.446;9.156;2022-08-01T07:10:08;4.33;;;3.93;;
2684;SDS011;1352;48.446;9.156;2022-08-01T07:12:36;4.30;;;3.90;;
2684;SDS011;1352;48.446;9.156;2022-08-01T07:15:04;4.27;;;3.87;;
2684;SDS011;1352;48.446;9.156;2022-08-01T07:17:32;3.90;;;3.50;;
2684;SDS011;1352;48.446;9.156;2022-08-01T07:19:59;3.77;;;3.47;;
2684;SDS011;1352;48.446;9.156;2022-08-01T07:22:26;8.50;;;3.97;;
2684;SDS011;1352;48.446;9.156;2022-08-01T07:24:53;3.63;;;3.33;;
2684;SDS011;1352;48.446;9.156;2022-08-01T07:27:21;4.70;;;4.30;;
2684;SDS011;1352;48.446;9.156;2022-08-01T07:29:48;4.47;;;3.77;;
2684;SDS011;1352;48.446;9.156;2022-08-01T07:32:16;4.43;;;4.03;;
2684;SDS011;1352;48.446;9.156;2022-08-01T07:34:43;4.63;;;4.13;;
2684;SDS011;1352;48.446;9.156;2022-08-01T07:37:10;3.77;;;3.40;;
2684;SDS011;1352;48.446;9.156;2022-08-01T07:39:37;4.37;;;3.93;;
2684;SDS011;1352;48.446;9.156;2022-08-01T07:42:04;4.17;;;3.77;;
2684;SDS011;1352;48.446;9.156;2022-08-01T07:44:32;3.40;;;3.10;;
2684;SDS011;1352;48.446;9.156;2022-08-01T07:47:00;4.43;;;4.03;;
2684;SDS011;1352;48.446;9.156;2022-08-01T07:49:27;3.77;;;3.57;;
2684;SDS011;1352;48.446;9.156;2022-08-01T07:51:54;5.70;;;2.63;;
2684;SDS011;1352;48.446;9.156;2022-08-01T07:54:21;2.90;;;2.60;;
2684;SDS011;1352;48.446;9.156;2022-08-01T07:56:50;4.47;;;3.77;;
2684;SDS011;1352;48.446;9.156;2022-08-01T07:59:17;4.87;;;3.53;;
2684;SDS011;1352;48.446;9.156;2022-08-01T08:01:49;5.00;;;3.23;;
2684;SDS011;1352;48.446;9.156;2022-08-01T08:04:17;8.97;;;3.47;;
2684;SDS011;1352;48.446;9.156;2022-08-01T08:06:44;4.90;;;3.87;;
2684;SDS011;1352;48.446;9.156;2022-08-01T08:09:13;5.43;;;3.40;;
2684;SDS011;1352;48.446;9.156;2022-08-01T08:11:41;3.83;;;3.43;;
2684;SDS011;1352;48.446;9.156;2022-08-01T08:14:09;4.83;;;3.80;;
2684;SDS011;1352;48.446;9.156;2022-08-01T08:16:36;3.63;;;3.17;;
2684;SDS011;1352;48.446;9.156;2022-08-01T08:19:05;4.40;;;4.00;;
2684;SDS011;1352;48.446;9.156;2022-08-01T08:21:32;3.50;;;3.20;;
2684;SDS011;1352;48.446;9.156;2022-08-01T08:24:00;4.87;;;4.47;;
2684;SDS011;1352;48.446;9.156;2022-08-01T08:26:45;4.90;;;3.80;;
2684;SDS011;1352;48.446;9.156;2022-08-01T08:29:13;4.27;;;3.97;;
2684;SDS011;1352;48.446;9.156;2022-08-01T08:31:40;4.30;;;3.90;;
2684;SDS011;1352;48.446;9.156;2022-08-01T08:34:09;3.77;;;3.50;;
2684;SDS011;1352;48.446;9.156;2022-08-01T08:36:36;4.20;;;3.90;;
2684;SDS011;1352;48.446;9.156;2022-08-01T08:39:04;4.60;;;4.20;;
2684;SDS011;1352;48.446;9.156;2022-08-01T08:41:32;5.60;;;5.10;;
2684;SDS011;1352;48.446;9.156;2022-08-01T08:44:00;5.37;;;4.10;;
2684;SDS011;1352;48.446;9.156;2022-08-01T08:46:28;4.70;;;4.30;;
2684;SDS011;1352;48.446;9.156;2022-08-01T08:48:58;4.60;;;4.20;;
2684;SDS011;1352;48.446;9.156;2022-08-01T08:51:27;6.53;;;4.43;;
2684;SDS011;1352;48.446;9.156;2022-08-01T08:53:57;4.77;;;4.30;;
2684;SDS011;1352;48.446;9.156;2022-08-01T08:56:25;4.90;;;4.50;;
2684;SDS011;1352;48.446;9.156;2022-08-01T08:58:55;4.70;;;4.30;;
2684;SDS011;1352;48.446;9.156;2022-08-01T09:01:22;5.70;;;4.43;;
2684;SDS011;1352;48.446;9.156;2022-08-01T09:03:49;4.90;;;4.50;;
2684;SDS011;1352;48.446;9.156;2022-08-01T09:06:16;4.47;;;4.07;;
2684;SDS011;1352;48.446;9.156;2022-08-01T09:08:45;7.23;;;4.70;;
2684;SDS011;1352;48.446;9.156;2022-08-01T09:11:12;4.50;;;4.10;;
2684;SDS011;1352;48.446;9.156;2022-08-01T09:13:40;4.37;;;4.07;;
2684;SDS011;1352;48.446;9.156;2022-08-01T09:16:07;7.40;;;5.10;;
2684;SDS011;1352;48.446;9.156;2022-08-01T09:18:36;4.57;;;4.20;;
2684;SDS011;1352;48.446;9.156;2022-08-01T09:21:10;4.60;;;4.20;;
2684;SDS011;1352;48.446;9.156;2022-08-01T09:23:41;4.97;;;4.60;;
2684;SDS011;1352;48.446;9.156;2022-08-01T09:26:13;6.37;;;4.50;;
2684;SDS011;1352;48.446;9.156;2022-08-01T09:28:41;6.80;;;4.87;;
2684;SDS011;1352;48.446;9.156;2022-08-01T09:31:10;4.50;;;4.10;;
2684;SDS011;1352;48.446;9.156;2022-08-01T09:33:49;4.50;;;4.07;;
2684;SDS011;1352;48.446;9.156;2022-08-01T09:36:17;4.73;;;4.30;;
2684;SDS011;1352;48.446;9.156;2022-08-01T09:38:48;5.13;;;4.70;;
2684;SDS011;1352;48.446;9.156;2022-08-01T09:41:17;4.77;;;4.10;;
2684;SDS011;1352;48.446;9.156;2022-08-01T09:43:54;4.37;;;4.07;;
2684;SDS011;1352;48.446;9.156;2022-08-01T09:46:22;5.10;;;4.03;;
2684;SDS011;1352;48.446;9.156;2022-08-01T09:48:59;7.60;;;4.67;;
2684;SDS011;1352;48.446;9.156;2022-08-01T09:51:29;5.50;;;5.10;;
2684;SDS011;1352;48.446;9.156;2022-08-01T09:54:01;5.13;;;3.70;;
2684;SDS011;1352;48.446;9.156;2022-08-01T09:56:36;5.47;;;4.93;;
2684;SDS011;1352;48.446;9.156;2022-08-01T09:59:05;5.40;;;4.90;;
2684;SDS011;1352;48.446;9.156;2022-08-01T10:01:42;5.10;;;4.67;;
2684;SDS011;1352;48.446;9.156;2022-08-01T10:04:11;6.00;;;4.23;;
2684;SDS011;1352;48.446;9.156;2022-08-01T10:06:40;4.77;;;4.37;;
2684;SDS011;1352;48.446;9.156;2022-08-01T10:09:09;5.03;;;4.50;;
2684;SDS011;1352;48.446;9.156;2022-08-01T10:11:39;5.07;;;4.67;;
2684;SDS011;1352;48.446;9.156;2022-08-01T10:14:08;5.10;;;4.60;;
2684;SDS011;1352;48.446;9.156;2022-08-01T10:16:37;7.50;;;4.70;;
2684;SDS011;1352;48.446;9.156;2022-08-01T10:19:06;5.70;;;4.97;;
2684;SDS011;1352;48.446;9.156;2022-08-01T10:21:34;5.03;;;4.63;;
2684;SDS011;1352;48.446;9.156;2022-08-01T10:24:03;4.50;;;4.20;;
2684;SDS011;1352;48.446;9.156;2022-08-01T10:26:34;4.50;;;4.10;;
2684;SDS011;1352;48.446;9.156;2022-08-01T10:29:04;3.90;;;3.60;;
2684;SDS011;1352;48.446;9.156;2022-08-01T10:31:32;5.80;;;4.60;;
2684;SDS011;1352;48.446;9.156;2022-08-01T10:33:59;4.77;;;4.37;;
2684;SDS011;1352;48.446;9.156;2022-08-01T10:36:28;4.27;;;3.97;;
2684;SDS011;1352;48.446;9.156;2022-08-01T10:38:56;4.40;;;4.10;;
2684;SDS011;1352;48.446;9.156;2022-08-01T10:41:24;4.77;;;4.30;;
2684;SDS011;1352;48.446;9.156;2022-08-01T10:43:54;4.27;;;3.97;;
2684;SDS011;1352;48.446;9.156;2022-08-01T10:46:24;4.10;;;3.80;;
2684;SDS011;1352;48.446;9.156;2022-08-01T10:48:54;5.40;;;5.00;;
2684;SDS011;1352;48.446;9.156;2022-08-01T10:51:25;4.17;;;3.80;;
2684;SDS011;1352;48.446;9.156;2022-08-01T10:53:54;5.70;;;5.07;;
2684;SDS011;1352;48.446;9.156;2022-08-01T10:56:22;4.90;;;4.50;;
2684;SDS011;1352;48.446;9.156;2022-08-01T10:58:51;5.03;;;3.53;;
2684;SDS011;1352;48.446;9.156;2022-08-01T11:01:30;4.40;;;4.00;;
2684;SDS011;1352;48.446;9.156;2022-08-01T11:04:01;4.07;;;3.77;;
2684;SDS011;1352;48.446;9.156;2022-08-01T11:06:41;5.13;;;4.47;;
2684;SDS011;1352;48.446;9.156;2022-08-01T11:09:19;4.60;;;4.20;;
2684;SDS011;1352;48.446;9.156;2022-08-01T11:11:57;4.47;;;4.17;;
2684;SDS011;1352;48.446;9.156;2022-08-01T11:14:27;4.60;;;4.30;;
2684;SDS011;1352;48.446;9.156;2022-08-01T11:16:56;4.83;;;4.43;;
2684;SDS011;1352;48.446;9.156;2022-08-01T11:20:06;4.37;;;4.07;;
2684;SDS011;1352;48.446;9.156;2022-08-01T11:26:11;4.20;;;3.90;;
2684;SDS011;1352;48.446;9.156;2022-08-01T11:28:39;4.50;;;4.20;;
2684;SDS011;1352;48.446;9.156;2022-08-01T11:33:57;4.27;;;3.90;;
2684;SDS011;1352;48.446;9.156;2022-08-01T11:36:25;3.97;;;3.67;;
2684;SDS011;1352;48.446;9.156;2022-08-01T11:39:11;4.63;;;4.23;;
2684;SDS011;1352;48.446;9.156;2022-08-01T11:41:41;4.67;;;4.27;;
2684;SDS011;1352;48.446;9.156;2022-08-01T11:44:09;4.27;;;3.87;;
2684;SDS011;1352;48.446;9.156;2022-08-01T11:46:45;4.40;;;4.00;;
2684;SDS011;1352;48.446;9.156;2022-08-01T11:49:27;4.67;;;4.27;;
2684;SDS011;1352;48.446;9.156;2022-08-01T11:51:58;4.83;;;4.43;;
2684;SDS011;1352;48.446;9.156;2022-08-01T11:54:28;4.67;;;4.27;;
2684;SDS011;1352;48.446;9.156;2022-08-01T11:56:56;5.50;;;4.10;;
2684;SDS011;1352;48.446;9.156;2022-08-01T11:59:25;4.10;;;3.73;;
2684;SDS011;1352;48.446;9.156;2022-08-01T12:01:52;4.50;;;3.80;;
2684;SDS011;1352;48.446;9.156;2022-08-01T12:04:20;4.90;;;4.53;;
2684;SDS011;1352;48.446;9.156;2022-08-01T12:06:48;4.10;;;3.90;;
2684;SDS011;1352;48.446;9.156;2022-08-01T12:09:19;3.90;;;3.60;;
2684;SDS011;1352;48.446;9.156;2022-08-01T12:11:48;4.20;;;3.90;;
2684;SDS011;1352;48.446;9.156;2022-08-01T12:14:16;4.80;;;4.40;;
2684;SDS011;1352;48.446;9.156;2022-08-01T12:16:49;4.00;;;3.70;;
2684;SDS011;1352;48.446;9.156;2022-08-01T12:19:19;4.40;;;4.10;;
2684;SDS011;1352;48.446;9.156;2022-08-01T12:24:39;4.63;;;4.23;;
2684;SDS011;1352;48.446;9.156;2022-08-01T12:27:08;5.30;;;4.50;;
2684;SDS011;1352;48.446;9.156;2022-08-01T12:29:38;5.47;;;4.97;;
2684;SDS011;1352;48.446;9.156;2022-08-01T12:32:23;5.27;;;4.87;;
2684;SDS011;1352;48.446;9.156;2022-08-01T12:34:53;5.77;;;5.13;;
2684;SDS011;1352;48.446;9.156;2022-08-01T12:37:23;4.17;;;3.87;;
2684;SDS011;1352;48.446;9.156;2022-08-01T12:39:50;5.27;;;4.87;;
2684;SDS011;1352;48.446;9.156;2022-08-01T12:42:17;5.70;;;5.30;;
2684;SDS011;1352;48.446;9.156;2022-08-01T12:44:45;5.30;;;4.90;;
2684;SDS011;1352;48.446;9.156;2022-08-01T12:47:16;9.13;;;5.07;;
2684;SDS011;1352;48.446;9.156;2022-08-01T12:49:45;5.50;;;5.10;;
2684;SDS011;1352;48.446;9.156;2022-08-01T12:52:14;5.30;;;4.90;;
2684;SDS011;1352;48.446;9.156;2022-08-01T12:55:04;5.93;;;5.20;;
2684;SDS011;1352;48.446;9.156;2022-08-01T12:57:43;5.83;;;5.33;;
2684;SDS011;1352;48.446;9.156;2022-08-01T13:00:21;5.60;;;5.03;;
2684;SDS011;1352;48.446;9.156;2022-08-01T13:02:50;5.27;;;4.77;;
2684;SDS011;1352;48.446;9.156;2022-08-01T13:05:28;5.70;;;4.70;;
2684;SDS011;1352;48.446;9.156;2022-08-01T13:08:09;5.37;;;4.90;;
2684;SDS011;1352;48.446;9.156;2022-08-01T13:10:39;6.10;;;5.50;;
2684;SDS011;1352;48.446;9.156;2022-08-01T13:13:08;5.50;;;5.00;;
2684;SDS011;1352;48.446;9.156;2022-08-01T13:15:36;5.83;;;5.23;;
2684;SDS011;1352;48.446;9.156;2022-08-01T13:20:50;6.80;;;4.87;;
2684;SDS011;1352;48.446;9.156;2022-08-01T13:23:33;6.13;;;5.63;;
2684;SDS011;1352;48.446;9.156;2022-08-01T13:26:02;5.13;;;4.73;;
2684;SDS011;1352;48.446;9.156;2022-08-01T13:28:30;6.30;;;5.23;;
2684;SDS011;1352;48.446;9.156;2022-08-01T13:30:58;6.57;;;5.50;;
2684;SDS011;1352;48.446;9.156;2022-08-01T13:33:27;5.80;;;5.40;;
2684;SDS011;1352;48.446;9.156;2022-08-01T13:36:07;6.00;;;5.40;;
2684;SDS011;1352;48.446;9.156;2022-08-01T13:38:35;5.70;;;5.30;;
2684;SDS011;1352;48.446;9.156;2022-08-01T13:41:21;5.30;;;4.90;;
2684;SDS011;1352;48.446;9.156;2022-08-01T13:43:48;5.33;;;4.93;;
2684;SDS011;1352;48.446;9.156;2022-08-01T13:46:15;6.10;;;5.60;;
2684;SDS011;1352;48.446;9.156;2022-08-01T13:48:43;5.73;;;5.30;;
2684;SDS011;1352;48.446;9.156;2022-08-01T13:51:10;5.70;;;5.20;;
2684;SDS011;1352;48.446;9.156;2022-08-01T13:53:37;5.60;;;5.10;;
2684;SDS011;1352;48.446;9.156;2022-08-01T13:56:04;7.33;;;5.50;;
2684;SDS011;1352;48.446;9.156;2022-08-01T13:58:33;5.30;;;4.90;;
2684;SDS011;1352;48.446;9.156;2022-08-01T14:01:00;5.17;;;4.77;;
2684;SDS011;1352;48.446;9.156;2022-08-01T14:03:27;6.20;;;5.13;;
2684;SDS011;1352;48.446;9.156;2022-08-01T14:05:55;4.80;;;4.50;;
2684;SDS011;1352;48.446;9.156;2022-08-01T14:08:23;5.47;;;5.07;;
2684;SDS011;1352;48.446;9.156;2022-08-01T14:10:51;5.23;;;4.83;;
2684;SDS011;1352;48.446;9.156;2022-08-01T14:13:18;5.77;;;5.27;;
2684;SDS011;1352;48.446;9.156;2022-08-01T14:15:47;5.60;;;5.10;;
2684;SDS011;1352;48.446;9.156;2022-08-01T14:18:15;5.27;;;4.97;;
2684;SDS011;1352;48.446;9.156;2022-08-01T14:20:42;5.47;;;5.07;;
2684;SDS011;1352;48.446;9.156;2022-08-01T14:23:10;6.40;;;5.00;;
2684;SDS011;1352;48.446;9.156;2022-08-01T14:25:37;5.43;;;5.03;;
2684;SDS011;1352;48.446;9.156;2022-08-01T14:28:05;5.50;;;5.10;;
2684;SDS011;1352;48.446;9.156;2022-08-01T14:30:33;4.97;;;4.57;;
2684;SDS011;1352;48.446;9.156;2022-08-01T14:33:01;5.20;;;4.80;;
2684;SDS011;1352;48.446;9.156;2022-08-01T14:35:29;5.53;;;5.03;;
2684;SDS011;1352;48.446;9.156;2022-08-01T14:37:56;5.20;;;4.73;;
2684;SDS011;1352;48.446;9.156;2022-08-01T14:40:23;5.23;;;4.80;;
2684;SDS011;1352;48.446;9.156;2022-08-01T14:42:50;5.87;;;5.07;;
2684;SDS011;1352;48.446;9.156;2022-08-01T14:45:18;5.03;;;4.63;;
2684;SDS011;1352;48.446;9.156;2022-08-01T14:47:45;4.70;;;4.30;;
2684;SDS011;1352;48.446;9.156;2022-08-01T14:50:14;5.47;;;4.10;;
2684;SDS011;1352;48.446;9.156;2022-08-01T14:52:42;4.30;;;4.00;;
2684;SDS011;1352;48.446;9.156;2022-08-01T14:55:10;14.13;;;4.27;;
2684;SDS011;1352;48.446;9.156;2022-08-01T14:57:38;4.30;;;4.00;;
2684;SDS011;1352;48.446;9.156;2022-08-01T15:00:07;4.63;;;4.20;;
2684;SDS011;1352;48.446;9.156;2022-08-01T15:02:37;6.07;;;4.70;;
2684;SDS011;1352;48.446;9.156;2022-08-01T15:05:04;5.30;;;4.30;;
2684;SDS011;1352;48.446;9.156;2022-08-01T15:07:34;5.53;;;4.33;;
2684;SDS011;1352;48.446;9.156;2022-08-01T15:10:02;5.50;;;5.00;;
2684;SDS011;1352;48.446;9.156;2022-08-01T15:12:31;5.70;;;5.20;;
2684;SDS011;1352;48.446;9.156;2022-08-01T15:14:58;4.73;;;4.40;;
2684;SDS011;1352;48.446;9.156;2022-08-01T15:17:26;5.70;;;4.43;;
2684;SDS011;1352;48.446;9.156;2022-08-01T15:19:56;5.07;;;4.57;;
2684;SDS011;1352;48.446;9.156;2022-08-01T15:22:35;4.83;;;4.43;;
2684;SDS011;1352;48.446;9.156;2022-08-01T15:25:03;8.00;;;5.10;;
2684;SDS011;1352;48.446;9.156;2022-08-01T15:27:31;5.30;;;4.87;;
2684;SDS011;1352;48.446;9.156;2022-08-01T15:40:02;4.50;;;4.20;;
2684;SDS011;1352;48.446;9.156;2022-08-01T15:42:30;4.43;;;4.03;;
2684;SDS011;1352;48.446;9.156;2022-08-01T15:44:58;5.10;;;4.60;;
2684;SDS011;1352;48.446;9.156;2022-08-01T15:47:25;5.07;;;4.53;;
2684;SDS011;1352;48.446;9.156;2022-08-01T15:49:52;4.83;;;4.43;;
2684;SDS011;1352;48.446;9.156;2022-08-01T15:52:20;3.93;;;3.63;;
2684;SDS011;1352;48.446;9.156;2022-08-01T15:54:48;5.30;;;4.00;;